Eddyville, IA

3:56 AM CDT on August 30, 2016 (GMT -0500)
IADOT | | Change Station

Elev 799 ft 41.15 °N, 92.64 °W | Updated 35 minutes ago

Mostly Cloudy
Mostly Cloudy
70.0 °F
Feels Like 70.0 °F
N
0.0
Wind Variable Wind from NE
Gusts 3.0 mph

Today
High -- | Low -- °F
--% Chance of Precip.
Yesterday
High -- | Low -- °F
Precip. -- in
Pressure 30.18 in
Visibility 5.0 miles
Clouds Scattered Clouds 6000 ft
Mostly Cloudy 7000 ft
Mostly Cloudy 8000 ft
Dew Point Not available.
Humidity Not available.
Rainfall in
Snow Depth Not available.
6:35 AM 7:45 PM
Waning Crescent, 4% visible
METAR KOOA 300835Z AUTO 00000KT 5SM BR SCT060 BKN070 BKN080 20/20 A3018 RMK AO2 T02030200
Pressure 30.18 in
Visibility 5.0 miles
Clouds Scattered Clouds 6000 ft
Mostly Cloudy 7000 ft
Mostly Cloudy 8000 ft
Dew Point Not available.
Humidity Not available.
Rainfall in
Snow Depth Not available.
6:35 AM 7:45 PM
Waning Crescent, 4% visible
METAR KOOA 300835Z AUTO 00000KT 5SM BR SCT060 BKN070 BKN080 20/20 A3018 RMK AO2 T02030200

10-Day Weather Forecast

Almanac

Astronomy

Aug. 30, 2016 Rise Set
Actual Time
Civil Twilight
Nautical Twilight
Astronomical Twilight
Moon
Length of Visible Light
Length of Day
Tomorrow will be .
, % of the Moon is Illuminated

Today's Extremes

State Highs State Lows

Community

WunderPhotos

Upload Photos

1,935,795 photos uploaded!

WunderBlog® & News

Nearby

Air Quality

  Air Quality AQ Index Pollutant
Not available.

Snow Depth

Station Depth Elevation

Earthquake Activity

City Distance Mag. Time & Date
Minimum magnitude displayed is 2.5.

Coastal Water Temperatures

Place Temperature

Stations

Nearby Weather Stations

Station Location Temp. Windchill Dew Point Humidity Wind Precip. Elev Updated Type
                   

Watches & Warnings

There are currently no watches in effect.